Time;durP1;ratioP1;P1;durP2;ratioP2;P2;SDS_P1;SDS_P2;PMS_P1;PMS_P2;Temp;Humidity;BMP_temperature;BMP_pressure;BME280_temperature;BME280_humidity;BME280_pressure;Samples;Min_cycle;Max_cycle;Signal;HPM_P1;HPM_P2
2023/12/12 00:01:54;;;;;;;;;;;;;;;-140.72;100.00;55638.78;5094183;28;19920;-72
2023/12/12 00:04:20;;;;;;;;;;;;;;;-140.72;100.00;55691.56;5080603;28;19924;-72
2023/12/12 00:06:45;;;;;;;;;;;;;;;-140.72;100.00;55701.72;5085351;28;19917;-72
2023/12/12 00:09:10;;;;;;;;;;;;;;;-140.72;100.00;55705.78;5072817;28;19926;-72
2023/12/12 00:11:36;;;;;;;;;;;;;;;-140.72;100.00;55764.69;5102630;28;19920;-72
2023/12/12 00:14:01;;;;;;;;;;;;;;;-140.72;100.00;55738.28;5095567;28;20015;-72
2023/12/12 00:16:26;;;;;;;;;;;;;;;-140.72;100.00;55726.09;5106874;28;19924;-72
2023/12/12 00:18:51;;;;;;;;;;;;;;;-140.72;100.00;55740.31;5105390;28;19920;-72
2023/12/12 00:21:17;;;;;;;;;;;;;;;-140.72;100.00;55782.97;5102735;28;19973;-72
2023/12/12 00:23:43;;;;;;;;;;;;;;;-140.72;100.00;55774.84;5103218;28;19943;-72
2023/12/12 00:26:09;;;;;;;;;;;;;;;-140.72;100.00;55785.00;5103428;28;20384;-72
2023/12/12 00:28:34;;;;;;;;;;;;;;;-140.72;100.00;55799.22;5093696;28;19959;-72
2023/12/12 00:31:00;;;;;;;;;;;;;;;-140.72;100.00;55766.72;5095682;28;19994;-72
2023/12/12 00:33:25;;;;;;;;;;;;;;;-140.72;100.00;55760.63;5095433;28;19920;-72
2023/12/12 00:35:50;;;;;;;;;;;;;;;-140.72;100.00;55782.97;5095472;28;19919;-72
2023/12/12 00:38:15;;;;;;;;;;;;;;;-140.72;100.00;55782.97;5092599;28;20060;-72
2023/12/12 00:40:41;;;;;;;;;;;;;;;-140.72;100.00;55789.06;5079341;28;19920;-72
2023/12/12 00:43:06;;;;;;;;;;;;;;;-140.72;100.00;55789.06;5090989;28;20002;-72
2023/12/12 00:45:31;;;;;;;;;;;;;;;-140.72;100.00;55809.38;5091457;28;19955;-72
2023/12/12 00:47:56;;;;;;;;;;;;;;;-140.72;100.00;55774.84;5083162;28;19980;-71
2023/12/12 00:50:22;;;;;;;;;;;;;;;-140.72;100.00;55803.28;5097574;28;20319;-72
2023/12/12 00:52:47;;;;;;;;;;;;;;;-140.72;100.00;55782.97;5099083;28;20388;-72
2023/12/12 00:55:12;;;;;;;;;;;;;;;-140.72;100.00;55758.59;5080352;28;20155;-72
2023/12/12 00:57:38;;;;;;;;;;;;;;;-140.72;100.00;55768.75;5104109;28;19947;-72
2023/12/12 01:00:03;;;;;;;;;;;;;;;-140.72;100.00;55715.94;5100284;28;19928;-72
2023/12/12 01:02:29;;;;;;;;;;;;;;;-140.72;100.00;55720.00;5080074;28;19927;-72
2023/12/12 01:04:54;;;;;;;;;;;;;;;-140.72;100.00;55785.00;5100461;28;19962;-72
2023/12/12 01:07:19;;;;;;;;;;;;;;;-140.72;100.00;55778.91;5099165;28;19999;-72
2023/12/12 01:09:45;;;;;;;;;;;;;;;-140.72;100.00;55764.69;5093832;28;20015;-72
2023/12/12 01:12:10;;;;;;;;;;;;;;;-140.72;100.00;55768.75;5093576;28;19964;-72
2023/12/12 01:14:35;;;;;;;;;;;;;;;-140.72;100.00;55793.13;5089145;28;20377;-73
2023/12/12 01:17:03;;;;;;;;;;;;;;;-140.72;100.00;55852.00;5099768;28;19916;-72
2023/12/12 01:19:28;;;;;;;;;;;;;;;-140.72;100.00;55805.31;5094526;28;20414;-73
2023/12/12 01:21:54;;;;;;;;;;;;;;;-140.72;100.00;55791.09;5085056;28;19916;-73
2023/12/12 01:24:19;;;;;;;;;;;;;;;-140.72;100.00;55809.38;5096363;28;19920;-73
2023/12/12 01:26:44;;;;;;;;;;;;;;;-140.72;100.00;55793.13;5080123;28;19920;-72
2023/12/12 01:29:11;;;;;;;;;;;;;;;-140.72;100.00;55789.06;5099341;28;19920;-72
2023/12/12 01:31:36;;;;;;;;;;;;;;;-140.72;100.00;55762.66;5102728;28;19920;-72
2023/12/12 01:34:01;;;;;;;;;;;;;;;-140.72;100.00;55809.38;5101243;28;19917;-73
2023/12/12 01:36:27;;;;;;;;;;;;;;;-140.72;100.00;55795.16;5091176;28;19939;-72
2023/12/12 01:38:52;;;;;;;;;;;;;;;-140.72;100.00;55803.28;5058889;28;19920;-72
2023/12/12 01:41:18;;;;;;;;;;;;;;;-140.72;100.00;55793.13;5099130;28;19921;-73
2023/12/12 01:43:43;;;;;;;;;;;;;;;-140.72;100.00;55843.88;5088599;28;20021;-72
2023/12/12 01:46:11;;;;;;;;;;;;;;;-140.72;100.00;55805.31;5092281;28;19916;-72
2023/12/12 01:48:36;;;;;;;;;;;;;;;-140.72;100.00;55829.69;5092370;28;20266;-73
2023/12/12 01:51:02;;;;;;;;;;;;;;;-140.72;100.00;55845.94;5073573;28;20002;-71
2023/12/12 01:53:32;;;;;;;;;;;;;;;-140.72;100.00;55854.03;5092296;28;20289;-72
2023/12/12 01:55:59;;;;;;;;;;;;;;;-140.72;100.00;55839.84;5094358;28;20388;-72
2023/12/12 01:58:28;;;;;;;;;;;;;;;-140.72;100.00;55872.31;5081703;28;19916;-72
2023/12/12 02:00:53;;;;;;;;;;;;;;;-140.72;100.00;55917.00;5091351;28;19920;-73
2023/12/12 02:03:19;;;;;;;;;;;;;;;-140.72;100.00;55927.16;5090602;28;19947;-73
2023/12/12 02:05:46;;;;;;;;;;;;;;;-140.72;100.00;55908.88;5097253;28;19963;-73
2023/12/12 02:08:11;;;;;;;;;;;;;;;-140.72;100.00;55959.66;5095959;28;20377;-73
2023/12/12 02:10:36;;;;;;;;;;;;;;;-140.72;100.00;55945.44;5091385;28;19999;-75
2023/12/12 02:13:01;;;;;;;;;;;;;;;-140.72;100.00;55927.16;5090799;28;20377;-73
2023/12/12 02:15:27;;;;;;;;;;;;;;;-140.72;100.00;55945.44;5090862;28;19916;-73
2023/12/12 02:17:52;;;;;;;;;;;;;;;-140.72;100.00;55957.63;5093384;28;19969;-73
2023/12/12 02:20:18;;;;;;;;;;;;;;;-140.72;100.00;56040.91;5092394;28;20061;-72
2023/12/12 02:22:44;;;;;;;;;;;;;;;-140.72;100.00;56024.66;5081883;28;20378;-71
2023/12/12 02:25:09;;;;;;;;;;;;;;;-140.72;100.00;56047.00;5091409;28;19916;-71
2023/12/12 02:27:36;;;;;;;;;;;;;;;-140.72;100.00;56089.63;5078994;28;20015;-72
2023/12/12 02:30:01;;;;;;;;;;;;;;;-140.72;100.00;56103.84;5076658;28;19920;-72
2023/12/12 02:32:28;;;;;;;;;;;;;;;-140.72;100.00;56146.50;5087382;28;20429;-72
2023/12/12 02:34:53;;;;;;;;;;;;;;;-140.72;100.00;56152.59;5099537;28;20398;-71
2023/12/12 02:37:19;;;;;;;;;;;;;;;-140.72;100.00;56122.13;5108002;28;19916;-72
2023/12/12 02:39:44;;;;;;;;;;;;;;;-140.72;100.00;56215.56;5110317;28;19965;-72
2023/12/12 02:42:09;;;;;;;;;;;;;;;-140.72;100.00;56187.13;5105422;28;19920;-72
2023/12/12 02:44:34;;;;;;;;;;;;;;;-140.72;100.00;56264.31;5090250;28;19939;-72
2023/12/12 02:46:59;;;;;;;;;;;;;;;-140.72;100.00;56248.06;5102441;28;19980;-72
2023/12/12 02:49:25;;;;;;;;;;;;;;;-140.72;100.00;56276.50;5093149;28;20023;-72
2023/12/12 02:51:50;;;;;;;;;;;;;;;-140.72;100.00;56294.78;5103053;28;19916;-72
2023/12/12 02:54:15;;;;;;;;;;;;;;;-140.72;100.00;56347.59;5103281;28;19926;-72
2023/12/12 02:56:40;;;;;;;;;;;;;;;-140.72;100.00;56292.75;5103231;28;19935;-72
2023/12/12 02:59:06;;;;;;;;;;;;;;;-140.72;100.00;56382.13;5094981;28;20018;-72
2023/12/12 03:01:31;;;;;;;;;;;;;;;-140.72;100.00;56359.78;5102617;28;19966;-72
2023/12/12 03:03:56;;;;;;;;;;;;;;;-140.72;100.00;56441.03;5094991;28;20439;-72
2023/12/12 03:06:21;;;;;;;;;;;;;;;-140.72;100.00;56402.44;5073937;28;20404;-72
2023/12/12 03:08:46;;;;;;;;;;;;;;;-140.72;100.00;56392.28;5100980;28;19971;-72
2023/12/12 03:11:12;;;;;;;;;;;;;;;-140.72;100.00;56439.00;5092132;28;19935;-72
2023/12/12 03:13:37;;;;;;;;;;;;;;;-140.72;100.00;56445.09;5096771;28;19916;-72
2023/12/12 03:16:02;;;;;;;;;;;;;;;-140.72;100.00;56518.19;5086955;28;19945;-72
2023/12/12 03:18:27;;;;;;;;;;;;;;;-140.72;100.00;56556.78;5091962;28;19981;-72
2023/12/12 03:20:53;;;;;;;;;;;;;;;-140.72;100.00;56556.78;5083292;28;19928;-72
2023/12/12 03:23:18;;;;;;;;;;;;;;;-140.72;100.00;56609.63;5077854;28;19973;-72
2023/12/12 03:25:43;;;;;;;;;;;;;;;-140.72;100.00;56623.81;5102711;28;20359;-72
2023/12/12 03:28:08;;;;;;;;;;;;;;;-140.72;100.00;56676.66;5099435;28;20374;-72
2023/12/12 03:30:34;;;;;;;;;;;;;;;-140.72;100.00;56717.28;5100160;28;19920;-72
2023/12/12 03:32:59;;;;;;;;;;;;;;;-140.72;100.00;56690.88;5093109;28;19921;-72
2023/12/12 03:35:24;;;;;;;;;;;;;;;-140.72;100.00;56731.50;5094370;28;19969;-72
2023/12/12 03:37:49;;;;;;;;;;;;;;;-140.72;100.00;56768.06;5089119;28;19916;-72
2023/12/12 03:40:14;;;;;;;;;;;;;;;-140.72;100.00;56776.19;5083697;28;19934;-72
2023/12/12 03:42:40;;;;;;;;;;;;;;;-140.72;100.00;56808.69;5094257;28;19920;-72
2023/12/12 03:45:06;;;;;;;;;;;;;;;-140.72;100.00;56768.06;5087268;28;19928;-72
2023/12/12 03:47:31;;;;;;;;;;;;;;;-140.72;100.00;56808.69;5093854;28;19917;-72
2023/12/12 03:49:56;;;;;;;;;;;;;;;-140.72;100.00;56855.41;5085022;28;20026;-72
2023/12/12 03:52:29;;;;;;;;;;;;;;;-140.72;100.00;56865.56;5077539;28;19963;-72
2023/12/12 03:54:54;;;;;;;;;;;;;;;-140.72;100.00;56902.13;5096091;28;19927;-72
2023/12/12 03:57:19;;;;;;;;;;;;;;;-140.72;100.00;56918.38;5087967;28;19920;-72
2023/12/12 04:00:17;;;;;;;;;;;;;;;-140.72;100.00;56959.00;5090953;28;19990;-72
2023/12/12 04:02:43;;;;;;;;;;;;;;;-140.72;100.00;57054.47;5080729;28;19916;-72
2023/12/12 04:05:11;;;;;;;;;;;;;;;-140.72;100.00;57113.41;5103604;28;19923;-72
2023/12/12 04:07:39;;;;;;;;;;;;;;;-140.72;100.00;57064.63;5096293;28;19916;-72
2023/12/12 04:10:06;;;;;;;;;;;;;;;-140.72;100.00;57089.03;5076981;28;19974;-76
2023/12/12 04:12:31;;;;;;;;;;;;;;;-140.72;100.00;57109.34;5088338;28;19959;-73
2023/12/12 04:14:57;;;;;;;;;;;;;;;-140.72;100.00;57178.41;5087061;28;19940;-72
2023/12/12 04:17:22;;;;;;;;;;;;;;;-140.72;100.00;57137.78;5086748;28;19958;-73
2023/12/12 04:19:47;;;;;;;;;;;;;;;-140.72;100.00;57097.16;5077239;28;20011;-72
2023/12/12 04:22:12;;;;;;;;;;;;;;;-140.72;100.00;57117.47;5076730;28;19962;-72
2023/12/12 04:24:38;;;;;;;;;;;;;;;-140.72;100.00;57133.72;5093706;28;20017;-72
2023/12/12 04:27:03;;;;;;;;;;;;;;;-140.72;100.00;57113.41;5083163;28;19931;-72
2023/12/12 04:29:28;;;;;;;;;;;;;;;-140.72;100.00;57066.69;5086875;28;20362;-73
2023/12/12 04:31:53;;;;;;;;;;;;;;;-140.72;100.00;57123.56;5094831;28;19920;-72
2023/12/12 04:34:19;;;;;;;;;;;;;;;-140.72;100.00;57111.38;5092201;28;19917;-72
2023/12/12 04:36:45;;;;;;;;;;;;;;;-140.72;100.00;57115.44;5084378;28;19939;-73
2023/12/12 04:39:11;;;;;;;;;;;;;;;-140.72;100.00;57125.59;5088703;28;19917;-72
2023/12/12 04:41:39;;;;;;;;;;;;;;;-140.72;100.00;57127.63;5080520;28;19924;-73
2023/12/12 04:44:06;;;;;;;;;;;;;;;-140.72;100.00;57194.66;5075962;28;20601;-73
2023/12/12 04:46:31;;;;;;;;;;;;;;;-140.72;100.00;57219.03;5073240;28;19916;-72
2023/12/12 04:48:58;;;;;;;;;;;;;;;-140.72;100.00;57217.00;5105486;28;19985;-72
2023/12/12 04:51:23;;;;;;;;;;;;;;;-140.72;100.00;57225.13;5093428;28;19954;-72
2023/12/12 04:53:48;;;;;;;;;;;;;;;-140.72;100.00;57229.19;5093102;28;19963;-72
2023/12/12 04:56:14;;;;;;;;;;;;;;;-140.72;100.00;57214.97;5092496;28;19920;-72
2023/12/12 04:58:39;;;;;;;;;;;;;;;-140.72;100.00;57194.66;5079488;28;19995;-72
2023/12/12 05:01:04;;;;;;;;;;;;;;;-140.72;100.00;57217.00;5091662;28;20003;-72
2023/12/12 05:03:29;;;;;;;;;;;;;;;-140.72;100.00;57245.44;5092706;28;19999;-72
2023/12/12 05:05:55;;;;;;;;;;;;;;;-140.72;100.00;57251.53;5093109;28;19916;-72
2023/12/12 05:08:20;;;;;;;;;;;;;;;-140.72;100.00;57223.09;5090727;28;20370;-72
2023/12/12 05:10:45;;;;;;;;;;;;;;;-140.72;100.00;57223.09;5091195;28;19937;-72
2023/12/12 05:13:10;;;;;;;;;;;;;;;-140.72;100.00;57269.84;5080877;28;19936;-72
2023/12/12 05:15:36;;;;;;;;;;;;;;;-140.72;100.00;57245.44;5084962;28;20290;-73
2023/12/12 05:18:02;;;;;;;;;;;;;;;-140.72;100.00;57245.44;5072500;28;19935;-73
2023/12/12 05:20:27;;;;;;;;;;;;;;;-140.72;100.00;57227.16;5093395;28;20308;-73
2023/12/12 05:22:53;;;;;;;;;;;;;;;-140.72;100.00;57249.50;5108531;28;19957;-73
2023/12/12 05:25:18;;;;;;;;;;;;;;;-140.72;100.00;57231.22;5109500;28;19916;-72
2023/12/12 05:27:43;;;;;;;;;;;;;;;-140.72;100.00;57243.41;5101668;28;20011;-73
2023/12/12 05:30:08;;;;;;;;;;;;;;;-140.72;100.00;57296.25;5104964;28;19927;-73
2023/12/12 05:32:34;;;;;;;;;;;;;;;-140.72;100.00;57300.31;5103115;28;19927;-72
2023/12/12 05:34:59;;;;;;;;;;;;;;;-140.72;100.00;57280.00;5078699;28;19924;-73
2023/12/12 05:37:24;;;;;;;;;;;;;;;-140.72;100.00;57353.13;5082251;28;19926;-73
2023/12/12 05:39:49;;;;;;;;;;;;;;;-140.72;100.00;57282.03;5095273;28;19953;-73
2023/12/12 05:42:15;;;;;;;;;;;;;;;-140.72;100.00;57326.72;5068829;28;19986;-73
2023/12/12 05:44:40;;;;;;;;;;;;;;;-140.72;100.00;57338.91;5080284;28;19921;-72
2023/12/12 05:47:05;;;;;;;;;;;;;;;-140.72;100.00;57359.22;5092994;28;19927;-72
2023/12/12 05:49:30;;;;;;;;;;;;;;;-140.72;100.00;57338.91;5096621;28;19920;-72
2023/12/12 05:51:56;;;;;;;;;;;;;;;-140.72;100.00;57353.13;5089542;28;20368;-74
2023/12/12 05:54:21;;;;;;;;;;;;;;;-140.72;100.00;57345.00;5092235;28;19917;-72
2023/12/12 05:56:46;;;;;;;;;;;;;;;-140.72;100.00;57373.44;5094182;28;19916;-72
2023/12/12 05:59:14;;;;;;;;;;;;;;;-140.72;100.00;57365.31;5072205;28;20011;-72
2023/12/12 06:01:41;;;;;;;;;;;;;;;-140.72;100.00;57363.28;5077959;28;20011;-73
2023/12/12 06:04:07;;;;;;;;;;;;;;;-140.72;100.00;57422.22;5089975;28;19930;-71
2023/12/12 06:06:33;;;;;;;;;;;;;;;-140.72;100.00;57489.25;5094116;28;19970;-77
2023/12/12 06:08:58;;;;;;;;;;;;;;;-140.72;100.00;57389.69;5074224;28;19916;-74
2023/12/12 06:11:24;;;;;;;;;;;;;;;-140.72;100.00;57446.59;5085796;28;20010;-74
2023/12/12 06:13:49;;;;;;;;;;;;;;;-140.72;100.00;57481.13;5071780;28;20027;-74
2023/12/12 06:16:14;;;;;;;;;;;;;;;-140.72;100.00;57483.16;5092331;28;19973;-74
2023/12/12 06:18:39;;;;;;;;;;;;;;;-140.72;100.00;57495.34;5092406;28;19943;-76
2023/12/12 06:21:05;;;;;;;;;;;;;;;-140.72;100.00;57499.41;5089890;28;19920;-75
2023/12/12 06:23:30;;;;;;;;;;;;;;;-140.72;100.00;57548.16;5080440;28;20372;-76
2023/12/12 06:25:56;;;;;;;;;;;;;;;-140.72;100.00;57499.41;5068734;28;19965;-76
2023/12/12 06:28:21;;;;;;;;;;;;;;;-140.72;100.00;57527.84;5074357;28;20286;-72
2023/12/12 06:30:46;;;;;;;;;;;;;;;-140.72;100.00;57594.91;5096095;28;19916;-72
2023/12/12 06:33:11;;;;;;;;;;;;;;;-140.72;100.00;57619.28;5081274;28;19923;-74
2023/12/12 06:35:37;;;;;;;;;;;;;;;-140.72;100.00;57653.81;5071783;28;20011;-74
2023/12/12 06:38:04;;;;;;;;;;;;;;;-140.72;100.00;57718.84;5097715;28;19916;-72
2023/12/12 06:40:30;;;;;;;;;;;;;;;-140.72;100.00;57865.13;5096851;28;19961;-71
2023/12/12 06:42:55;;;;;;;;;;;;;;;-140.72;100.00;58043.94;5103610;28;20330;-72
2023/12/12 06:45:20;;;;;;;;;;;;;;;-140.72;100.00;58060.22;5087249;28;19988;-71
2023/12/12 06:47:46;;;;;;;;;;;;;;;-140.72;100.00;58125.22;5084669;28;19920;-72
2023/12/12 06:50:11;;;;;;;;;;;;;;;-140.72;100.00;58251.22;5079916;28;19923;-73
2023/12/12 06:52:36;;;;;;;;;;;;;;;-140.72;100.00;58297.97;5084945;28;20417;-73
2023/12/12 06:55:03;;;;;;;;;;;;;;;-140.72;100.00;58356.91;5093157;28;20003;-74
2023/12/12 06:57:28;;;;;;;;;;;;;;;-140.72;100.00;58434.13;5095250;28;19917;-77
2023/12/12 06:59:54;;;;;;;;;;;;;;;-140.72;100.00;58495.09;5096307;28;20031;-73
2023/12/12 07:02:21;;;;;;;;;;;;;;;-140.72;100.00;58558.09;5081509;28;20197;-72
2023/12/12 07:04:46;;;;;;;;;;;;;;;-140.72;100.00;58578.41;5095128;28;20445;-73
2023/12/12 07:07:12;;;;;;;;;;;;;;;-140.72;100.00;58617.03;5106015;28;20277;-75
2023/12/12 07:09:37;;;;;;;;;;;;;;;-140.72;100.00;58678.00;5096416;28;20391;-74
2023/12/12 07:12:04;;;;;;;;;;;;;;;-140.72;100.00;58641.41;5090317;28;20295;-78
2023/12/12 07:14:29;;;;;;;;;;;;;;;-140.72;100.00;58645.47;5089920;28;19916;-73
2023/12/12 07:16:54;;;;;;;;;;;;;;;-140.72;100.00;58653.59;5087804;28;19917;-73
2023/12/12 07:19:20;;;;;;;;;;;;;;;-140.72;100.00;58686.13;5094277;28;19916;-72
2023/12/12 07:21:45;;;;;;;;;;;;;;;-140.72;100.00;58757.25;5100638;28;19923;-73
2023/12/12 07:24:10;;;;;;;;;;;;;;;-140.72;100.00;58759.28;5082753;28;19976;-72
2023/12/12 07:26:36;;;;;;;;;;;;;;;-140.72;100.00;58787.75;5065852;28;19974;-72
2023/12/12 07:29:01;;;;;;;;;;;;;;;-140.72;100.00;58816.19;5075914;28;19939;-72
2023/12/12 07:31:26;;;;;;;;;;;;;;;-140.72;100.00;58844.66;5086874;28;19927;-72
2023/12/12 07:33:51;;;;;;;;;;;;;;;-140.72;100.00;58836.50;5099842;28;20342;-72
2023/12/12 07:36:17;;;;;;;;;;;;;;;-140.72;100.00;58942.19;5084651;28;19955;-72
2023/12/12 07:38:42;;;;;;;;;;;;;;;-140.72;100.00;58950.34;5085971;28;20005;-72
2023/12/12 07:41:08;;;;;;;;;;;;;;;-140.72;100.00;58944.22;5100805;28;19923;-73
2023/12/12 07:43:33;;;;;;;;;;;;;;;-140.72;100.00;58997.09;5097140;28;19946;-73
2023/12/12 07:45:58;;;;;;;;;;;;;;;-140.72;100.00;59045.84;5100637;28;19993;-73
2023/12/12 07:48:23;;;;;;;;;;;;;;;-140.72;100.00;59043.81;5106525;28;19969;-72
2023/12/12 07:50:49;;;;;;;;;;;;;;;-140.72;100.00;59047.91;5094087;28;19916;-75
2023/12/12 07:53:14;;;;;;;;;;;;;;;-140.72;100.00;59064.16;5090345;28;19920;-73
2023/12/12 07:55:39;;;;;;;;;;;;;;;-140.72;100.00;59051.97;5090823;28;19920;-73
2023/12/12 07:58:05;;;;;;;;;;;;;;;-140.72;100.00;59015.38;5092600;28;19920;-72
2023/12/12 08:00:30;;;;;;;;;;;;;;;-140.72;100.00;59049.94;5082623;28;19971;-73
2023/12/12 08:02:55;;;;;;;;;;;;;;;-140.72;100.00;59011.31;5094419;28;19920;-73
2023/12/12 08:05:21;;;;;;;;;;;;;;;-140.72;100.00;59017.41;5097238;28;20283;-72
2023/12/12 08:07:46;;;;;;;;;;;;;;;-140.72;100.00;58986.91;5092395;28;19916;-72
2023/12/12 08:10:11;;;;;;;;;;;;;;;-140.72;100.00;59029.59;5095823;28;19927;-72
2023/12/12 08:12:36;;;;;;;;;;;;;;;-140.72;100.00;58999.13;5086811;28;19988;-73
2023/12/12 08:15:03;;;;;;;;;;;;;;;-140.72;100.00;58990.97;5099830;28;20373;-73
2023/12/12 08:17:28;;;;;;;;;;;;;;;-140.72;100.00;58986.91;5093469;28;20354;-73
2023/12/12 08:19:53;;;;;;;;;;;;;;;-140.72;100.00;59019.44;5096616;28;19934;-71
2023/12/12 08:22:19;;;;;;;;;;;;;;;-140.72;100.00;58970.66;5098721;28;21345;-72
2023/12/12 08:24:45;;;;;;;;;;;;;;;-140.72;100.00;58976.75;5089258;28;19916;-72
2023/12/12 08:27:12;;;;;;;;;;;;;;;-140.72;100.00;59001.16;5092504;28;19927;-72
2023/12/12 08:29:37;;;;;;;;;;;;;;;-140.72;100.00;59047.91;5094227;28;19931;-73
2023/12/12 08:32:02;;;;;;;;;;;;;;;-140.72;100.00;59051.97;5089385;28;19998;-73
2023/12/12 08:34:28;;;;;;;;;;;;;;;-140.72;100.00;59041.78;5089585;28;20018;-73
2023/12/12 08:36:54;;;;;;;;;;;;;;;-140.72;100.00;59039.75;5091673;28;19964;-73
2023/12/12 08:39:19;;;;;;;;;;;;;;;-140.72;100.00;59060.09;5090778;28;19967;-73
2023/12/12 08:41:44;;;;;;;;;;;;;;;-140.72;100.00;59133.25;5097508;28;20297;-73
2023/12/12 08:44:09;;;;;;;;;;;;;;;-140.72;100.00;59137.31;5091295;28;20336;-73
2023/12/12 08:46:35;;;;;;;;;;;;;;;-140.72;100.00;59165.78;5087815;28;20266;-73
2023/12/12 08:49:00;;;;;;;;;;;;;;;-140.72;100.00;59167.81;5089871;28;20269;-73
2023/12/12 08:51:26;;;;;;;;;;;;;;;-140.72;100.00;59222.69;5095385;28;20397;-73
2023/12/12 08:53:52;;;;;;;;;;;;;;;-140.72;100.00;59190.16;5092123;28;19934;-73
2023/12/12 08:56:18;;;;;;;;;;;;;;;-140.72;100.00;59251.16;5104214;28;19931;-73
2023/12/12 08:58:43;;;;;;;;;;;;;;;-140.72;100.00;59253.19;5072761;28;19924;-73
2023/12/12 09:01:09;;;;;;;;;;;;;;;-140.72;100.00;59238.97;5091938;28;19924;-73
2023/12/12 09:03:34;;;;;;;;;;;;;;;-140.72;100.00;59204.41;5095543;28;19928;-73
2023/12/12 09:05:59;;;;;;;;;;;;;;;-140.72;100.00;59218.63;5097032;28;19920;-73
2023/12/12 09:08:25;;;;;;;;;;;;;;;-140.72;100.00;59190.16;5094398;28;20373;-73
2023/12/12 09:10:50;;;;;;;;;;;;;;;-140.72;100.00;59175.94;5078256;28;19927;-73
2023/12/12 09:13:15;;;;;;;;;;;;;;;-140.72;100.00;59198.31;5091158;28;19966;-73
2023/12/12 09:15:40;;;;;;;;;;;;;;;-140.72;100.00;59161.72;5084112;28;19920;-74
2023/12/12 09:18:06;;;;;;;;;;;;;;;-140.72;100.00;59186.09;5094108;28;20404;-73
2023/12/12 09:20:31;;;;;;;;;;;;;;;-140.72;100.00;59157.66;5093457;28;19944;-73
2023/12/12 09:22:56;;;;;;;;;;;;;;;-140.72;100.00;59175.94;5085854;28;20348;-73
2023/12/12 09:25:22;;;;;;;;;;;;;;;-140.72;100.00;59092.59;5083744;28;20301;-73
2023/12/12 09:27:47;;;;;;;;;;;;;;;-140.72;100.00;59054.00;5087825;28;19939;-72
2023/12/12 09:30:12;;;;;;;;;;;;;;;-140.72;100.00;59060.09;5089254;28;19920;-72
2023/12/12 09:32:37;;;;;;;;;;;;;;;-140.72;100.00;59041.78;5091559;28;19927;-72
2023/12/12 09:35:03;;;;;;;;;;;;;;;-140.72;100.00;59015.38;5072547;28;20293;-72
2023/12/12 09:37:29;;;;;;;;;;;;;;;-140.72;100.00;58958.47;5084662;28;20012;-72
2023/12/12 09:39:54;;;;;;;;;;;;;;;-140.72;100.00;58946.28;5079338;28;19987;-73
2023/12/12 09:42:22;;;;;;;;;;;;;;;-140.72;100.00;58936.09;5089049;28;19965;-72
2023/12/12 09:44:58;;;;;;;;;;;;;;;-140.72;100.00;58923.91;5094710;28;19920;-72
2023/12/12 09:47:24;;;;;;;;;;;;;;;-140.72;100.00;58840.59;5084077;28;19924;-73
2023/12/12 09:49:50;;;;;;;;;;;;;;;-140.72;100.00;58783.66;5072072;28;19920;-73
2023/12/12 09:52:16;;;;;;;;;;;;;;;-140.72;100.00;58783.66;5096188;28;19927;-73
2023/12/12 09:54:42;;;;;;;;;;;;;;;-140.72;100.00;58710.50;5093415;28;19920;-72
2023/12/12 09:57:09;;;;;;;;;;;;;;;-140.72;100.00;58633.28;5089648;28;19969;-72
2023/12/12 09:59:34;;;;;;;;;;;;;;;-140.72;100.00;58552.00;5091258;28;19920;-72
2023/12/12 10:02:00;;;;;;;;;;;;;;;-140.72;100.00;58547.91;5093924;28;19927;-72
2023/12/12 10:04:25;;;;;;;;;;;;;;;-140.72;100.00;58521.50;5092960;28;19927;-73
2023/12/12 10:06:53;;;;;;;;;;;;;;;-140.72;100.00;58495.09;5089710;28;20015;-73
2023/12/12 10:09:19;;;;;;;;;;;;;;;-140.72;100.00;58334.53;5094842;28;19969;-73
2023/12/12 10:11:45;;;;;;;;;;;;;;;-140.72;100.00;58344.69;5094869;28;19920;-72
2023/12/12 10:14:10;;;;;;;;;;;;;;;-140.72;100.00;58267.47;5095979;28;19962;-72
2023/12/12 10:16:35;;;;;;;;;;;;;;;-140.72;100.00;58222.78;5097054;28;19928;-72
2023/12/12 10:19:01;;;;;;;;;;;;;;;-140.72;100.00;58117.09;5100682;28;19934;-73
2023/12/12 10:21:27;;;;;;;;;;;;;;;-140.72;100.00;58027.69;5101716;28;20389;-73
2023/12/12 10:23:53;;;;;;;;;;;;;;;-140.72;100.00;57970.81;5099944;28;19920;-73
2023/12/12 10:26:29;;;;;;;;;;;;;;;-140.72;100.00;57905.78;5095201;28;19928;-73
2023/12/12 10:28:56;;;;;;;;;;;;;;;-140.72;100.00;57808.25;5099416;28;19928;-73
2023/12/12 10:31:22;;;;;;;;;;;;;;;-140.72;100.00;57798.09;5101764;28;19927;-73
2023/12/12 10:33:48;;;;;;;;;;;;;;;-140.72;100.00;57706.66;5099156;28;19965;-73
2023/12/12 10:36:13;;;;;;;;;;;;;;;-140.72;100.00;57674.16;5080105;28;19951;-73
2023/12/12 10:38:38;;;;;;;;;;;;;;;-140.72;100.00;57625.38;5099696;28;19989;-73
2023/12/12 10:41:10;;;;;;;;;;;;;;;-140.72;100.00;57621.31;5095377;28;19931;-73
2023/12/12 10:43:38;;;;;;;;;;;;;;;-140.72;100.00;57639.59;5096297;28;19924;-73
2023/12/12 10:46:03;;;;;;;;;;;;;;;-140.72;100.00;57594.91;5088711;28;19928;-73
2023/12/12 10:48:29;;;;;;;;;;;;;;;-140.72;100.00;57572.56;5102850;28;20238;-73
2023/12/12 10:50:59;;;;;;;;;;;;;;;-140.72;100.00;57540.03;5098168;28;19923;-72
2023/12/12 10:53:25;;;;;;;;;;;;;;;-140.72;100.00;57497.38;5101535;28;19924;-72
2023/12/12 10:55:52;;;;;;;;;;;;;;;-140.72;100.00;57499.41;5090114;28;19946;-72
2023/12/12 10:58:17;;;;;;;;;;;;;;;-140.72;100.00;57442.53;5097533;28;20293;-72
2023/12/12 11:00:43;;;;;;;;;;;;;;;-140.72;100.00;57412.03;5089580;28;19928;-72
2023/12/12 11:03:08;;;;;;;;;;;;;;;-140.72;100.00;57349.06;5097664;28;19963;-72
2023/12/12 11:05:33;;;;;;;;;;;;;;;-140.72;100.00;57391.72;5090235;28;19920;-73
2023/12/12 11:07:59;;;;;;;;;;;;;;;-140.72;100.00;57332.81;5094882;28;20431;-72
2023/12/12 11:10:24;;;;;;;;;;;;;;;-140.72;100.00;57302.34;5098152;28;19963;-72
2023/12/12 11:12:55;;;;;;;;;;;;;;;-140.72;100.00;57219.03;5085498;28;19920;-72
2023/12/12 11:15:21;;;;;;;;;;;;;;;-140.72;100.00;57229.19;5102850;28;19920;-73
2023/12/12 11:17:47;;;;;;;;;;;;;;;-140.72;100.00;57235.28;5088609;28;19920;-73
2023/12/12 11:20:14;;;;;;;;;;;;;;;-140.72;100.00;57194.66;5094906;28;19939;-73
2023/12/12 11:22:40;;;;;;;;;;;;;;;-140.72;100.00;57206.84;5098247;28;19921;-73
2023/12/12 11:25:08;;;;;;;;;;;;;;;-140.72;100.00;57170.28;5091023;28;19931;-73
2023/12/12 11:27:39;;;;;;;;;;;;;;;-140.72;100.00;57139.81;5089941;28;20005;-73
2023/12/12 11:30:05;;;;;;;;;;;;;;;-140.72;100.00;57115.44;5102961;28;19919;-75
2023/12/12 11:32:32;;;;;;;;;;;;;;;-140.72;100.00;57034.16;5077517;28;19941;-74
2023/12/12 11:34:58;;;;;;;;;;;;;;;-140.72;100.00;57082.94;5096404;28;19920;-73
2023/12/12 11:37:37;;;;;;;;;;;;;;;-140.72;100.00;56993.53;5093085;28;20458;-73
2023/12/12 11:40:03;;;;;;;;;;;;;;;-140.72;100.00;57026.03;5092885;28;19928;-73
2023/12/12 11:42:30;;;;;;;;;;;;;;;-140.72;100.00;56993.53;5094341;28;19920;-73
2023/12/12 11:44:56;;;;;;;;;;;;;;;-140.72;100.00;57036.19;5091148;28;19927;-74
2023/12/12 11:47:23;;;;;;;;;;;;;;;-140.72;100.00;57026.03;5098359;28;19927;-73
2023/12/12 11:49:48;;;;;;;;;;;;;;;-140.72;100.00;57024.00;5093975;28;19920;-74
2023/12/12 11:52:40;;;;;;;;;;;;;;;-140.72;100.00;57015.88;5103348;28;20361;-73
2023/12/12 11:55:05;;;;;;;;;;;;;;;-140.72;100.00;57076.84;5089849;28;19932;-74
2023/12/12 11:57:31;;;;;;;;;;;;;;;-140.72;100.00;57129.66;5090266;28;19916;-73
2023/12/12 11:59:58;;;;;;;;;;;;;;;-140.72;100.00;57176.38;5091875;28;20373;-73
2023/12/12 12:02:27;;;;;;;;;;;;;;;-140.72;100.00;57206.84;5084448;28;19920;-73
2023/12/12 12:04:52;;;;;;;;;;;;;;;-140.72;100.00;57204.81;5088041;28;19928;-73
2023/12/12 12:07:17;;;;;;;;;;;;;;;-140.72;100.00;57231.22;5100697;28;19927;-73
2023/12/12 12:09:42;;;;;;;;;;;;;;;-140.72;100.00;57280.00;5091713;28;19927;-73
2023/12/12 12:12:08;;;;;;;;;;;;;;;-140.72;100.00;57347.03;5092938;28;19916;-73